Ralston, Iowa
Current Conditions -  °F | °C
As of 11:55 AM on Monday 24 Nov 2014 (Local Time) from KCIN Reporting Station
Overcast Overcast  
Wind Chill:   Ceiling: 2100
Heat Index: 25°   Visibility: 10mi
Dew Point: 16°   Wind: 26mph
Humidity: 69%   Direction: 310°NW
Pressure: 29.64"   Gusts: 39mph
Location:  42.04°N, 94.63°W
Report Text: KCIN 241755Z AUTO 31023G34KT 10SM OVC021 M04/M09 A2964 RMK AO2
Loading
Personal Weather Stations






























Interactive Weather Map New forecast layout! Learn more

10-Day Weather Forecast

Advertisements
Track Severe Weather on mobile